Terminal Aerodrome Forecast
Issued by NWS

Home | Current Version | Previous Version | Text Only | Print | Product List | Glossary On
Versions: 1 2 3 4 5 6 7 8 9 10 11 12 13 14 15 16 17 18 19 20 21 22 23 24 25 26 27 28
429
FTAK31 PANC 281505 AAB
TAFAHO
TAF AMD
PAHO 281505Z 2815/2912 06012G20KT P6SM -RA OVC035
     FM281800 09010KT P6SM -RA OVC030
     FM290300 11006KT 5SM -RA BR BKN025
     FM290700 VRB04KT P6SM VCSH SCT025 BKN040=

USA.gov is the U.S. government's official web portal to all federal, state and local government web resources and services.